sensor_id;sensor_type;location;lat;lon;timestamp;P1;durP1;ratioP1;P2;durP2;ratioP2
68947;SDS011;55996;49.546;7.400;2024-01-06T00:02:19;12.17;;;6.10;;
68947;SDS011;55996;49.546;7.400;2024-01-06T00:04:44;8.63;;;6.10;;
68947;SDS011;55996;49.546;7.400;2024-01-06T00:07:10;10.60;;;5.77;;
68947;SDS011;55996;49.546;7.400;2024-01-06T00:09:35;8.50;;;6.00;;
68947;SDS011;55996;49.546;7.400;2024-01-06T00:12:01;9.90;;;6.00;;
68947;SDS011;55996;49.546;7.400;2024-01-06T00:14:27;12.23;;;6.27;;
68947;SDS011;55996;49.546;7.400;2024-01-06T00:16:52;10.07;;;5.53;;
68947;SDS011;55996;49.546;7.400;2024-01-06T00:19:18;11.80;;;5.97;;
68947;SDS011;55996;49.546;7.400;2024-01-06T00:21:43;7.87;;;5.30;;
68947;SDS011;55996;49.546;7.400;2024-01-06T00:24:09;7.73;;;5.10;;
68947;SDS011;55996;49.546;7.400;2024-01-06T00:26:34;8.37;;;5.60;;
68947;SDS011;55996;49.546;7.400;2024-01-06T00:28:59;8.43;;;5.70;;
68947;SDS011;55996;49.546;7.400;2024-01-06T00:31:25;11.37;;;5.30;;
68947;SDS011;55996;49.546;7.400;2024-01-06T00:33:50;7.27;;;5.10;;
68947;SDS011;55996;49.546;7.400;2024-01-06T00:36:15;10.30;;;5.40;;
68947;SDS011;55996;49.546;7.400;2024-01-06T00:38:41;10.97;;;5.30;;
68947;SDS011;55996;49.546;7.400;2024-01-06T00:41:06;10.30;;;5.50;;
68947;SDS011;55996;49.546;7.400;2024-01-06T00:43:31;10.10;;;5.40;;
68947;SDS011;55996;49.546;7.400;2024-01-06T00:45:57;6.87;;;5.10;;
68947;SDS011;55996;49.546;7.400;2024-01-06T00:48:22;9.37;;;5.20;;
68947;SDS011;55996;49.546;7.400;2024-01-06T00:50:48;9.43;;;4.70;;
68947;SDS011;55996;49.546;7.400;2024-01-06T00:53:13;10.73;;;5.30;;
68947;SDS011;55996;49.546;7.400;2024-01-06T00:55:38;7.10;;;5.10;;
68947;SDS011;55996;49.546;7.400;2024-01-06T00:58:04;10.73;;;4.73;;
68947;SDS011;55996;49.546;7.400;2024-01-06T01:00:29;8.90;;;5.23;;
68947;SDS011;55996;49.546;7.400;2024-01-06T01:02:54;11.43;;;5.40;;
68947;SDS011;55996;49.546;7.400;2024-01-06T01:05:20;9.60;;;4.90;;
68947;SDS011;55996;49.546;7.400;2024-01-06T01:07:45;8.97;;;5.20;;
68947;SDS011;55996;49.546;7.400;2024-01-06T01:10:10;7.20;;;5.50;;
68947;SDS011;55996;49.546;7.400;2024-01-06T01:12:36;8.50;;;5.33;;
68947;SDS011;55996;49.546;7.400;2024-01-06T01:15:01;10.67;;;5.07;;
68947;SDS011;55996;49.546;7.400;2024-01-06T01:17:27;8.33;;;4.53;;
68947;SDS011;55996;49.546;7.400;2024-01-06T01:19:52;9.20;;;4.73;;
68947;SDS011;55996;49.546;7.400;2024-01-06T01:22:18;8.93;;;4.97;;
68947;SDS011;55996;49.546;7.400;2024-01-06T01:24:43;9.23;;;4.83;;
68947;SDS011;55996;49.546;7.400;2024-01-06T01:27:09;7.13;;;5.00;;
68947;SDS011;55996;49.546;7.400;2024-01-06T01:29:34;7.23;;;4.90;;
68947;SDS011;55996;49.546;7.400;2024-01-06T01:32:00;6.03;;;4.07;;
68947;SDS011;55996;49.546;7.400;2024-01-06T01:34:26;7.47;;;4.40;;
68947;SDS011;55996;49.546;7.400;2024-01-06T01:36:51;6.87;;;4.30;;
68947;SDS011;55996;49.546;7.400;2024-01-06T01:39:16;5.67;;;4.37;;
68947;SDS011;55996;49.546;7.400;2024-01-06T01:41:42;9.63;;;4.80;;
68947;SDS011;55996;49.546;7.400;2024-01-06T01:44:07;8.97;;;4.87;;
68947;SDS011;55996;49.546;7.400;2024-01-06T01:46:33;8.23;;;4.80;;
68947;SDS011;55996;49.546;7.400;2024-01-06T01:48:59;9.87;;;4.87;;
68947;SDS011;55996;49.546;7.400;2024-01-06T01:51:29;8.63;;;4.43;;
68947;SDS011;55996;49.546;7.400;2024-01-06T01:53:57;7.40;;;4.03;;
68947;SDS011;55996;49.546;7.400;2024-01-06T01:56:24;6.03;;;4.17;;
68947;SDS011;55996;49.546;7.400;2024-01-06T01:58:51;7.43;;;4.57;;
68947;SDS011;55996;49.546;7.400;2024-01-06T02:01:17;8.07;;;4.33;;
68947;SDS011;55996;49.546;7.400;2024-01-06T02:03:42;4.60;;;4.20;;
68947;SDS011;55996;49.546;7.400;2024-01-06T02:06:11;6.97;;;3.77;;
68947;SDS011;55996;49.546;7.400;2024-01-06T02:08:36;4.67;;;4.17;;
68947;SDS011;55996;49.546;7.400;2024-01-06T02:11:02;5.60;;;4.33;;
68947;SDS011;55996;49.546;7.400;2024-01-06T02:13:35;8.53;;;4.50;;
68947;SDS011;55996;49.546;7.400;2024-01-06T02:16:05;8.10;;;5.73;;
68947;SDS011;55996;49.546;7.400;2024-01-06T02:18:31;8.73;;;5.10;;
68947;SDS011;55996;49.546;7.400;2024-01-06T02:20:57;7.77;;;4.60;;
68947;SDS011;55996;49.546;7.400;2024-01-06T02:23:24;10.40;;;4.70;;
68947;SDS011;55996;49.546;7.400;2024-01-06T02:25:49;8.93;;;5.27;;
68947;SDS011;55996;49.546;7.400;2024-01-06T02:28:15;9.77;;;5.77;;
68947;SDS011;55996;49.546;7.400;2024-01-06T02:30:40;9.60;;;5.30;;
68947;SDS011;55996;49.546;7.400;2024-01-06T02:33:05;7.97;;;4.90;;
68947;SDS011;55996;49.546;7.400;2024-01-06T02:35:31;7.23;;;5.67;;
68947;SDS011;55996;49.546;7.400;2024-01-06T02:37:56;6.23;;;5.07;;
68947;SDS011;55996;49.546;7.400;2024-01-06T02:40:21;7.63;;;5.10;;
68947;SDS011;55996;49.546;7.400;2024-01-06T02:42:47;8.90;;;5.37;;
68947;SDS011;55996;49.546;7.400;2024-01-06T02:45:12;10.13;;;6.40;;
68947;SDS011;55996;49.546;7.400;2024-01-06T02:47:37;6.77;;;5.30;;
68947;SDS011;55996;49.546;7.400;2024-01-06T02:50:03;8.90;;;6.10;;
68947;SDS011;55996;49.546;7.400;2024-01-06T02:52:29;9.77;;;5.90;;
68947;SDS011;55996;49.546;7.400;2024-01-06T02:54:54;7.23;;;5.70;;
68947;SDS011;55996;49.546;7.400;2024-01-06T02:57:19;11.60;;;6.17;;
68947;SDS011;55996;49.546;7.400;2024-01-06T02:59:45;7.37;;;5.80;;
68947;SDS011;55996;49.546;7.400;2024-01-06T03:02:11;10.17;;;6.07;;
68947;SDS011;55996;49.546;7.400;2024-01-06T03:04:36;7.90;;;5.43;;
68947;SDS011;55996;49.546;7.400;2024-01-06T03:07:02;9.93;;;6.03;;
68947;SDS011;55996;49.546;7.400;2024-01-06T03:09:27;9.23;;;6.27;;
68947;SDS011;55996;49.546;7.400;2024-01-06T03:11:52;9.10;;;5.70;;
68947;SDS011;55996;49.546;7.400;2024-01-06T03:14:18;9.90;;;6.13;;
68947;SDS011;55996;49.546;7.400;2024-01-06T03:16:43;14.27;;;6.43;;
68947;SDS011;55996;49.546;7.400;2024-01-06T03:19:08;11.10;;;6.17;;
68947;SDS011;55996;49.546;7.400;2024-01-06T03:21:34;11.40;;;6.53;;
68947;SDS011;55996;49.546;7.400;2024-01-06T03:23:59;9.73;;;6.70;;
68947;SDS011;55996;49.546;7.400;2024-01-06T03:26:25;6.83;;;5.80;;
68947;SDS011;55996;49.546;7.400;2024-01-06T03:28:50;9.23;;;6.50;;
68947;SDS011;55996;49.546;7.400;2024-01-06T03:31:16;12.63;;;6.20;;
68947;SDS011;55996;49.546;7.400;2024-01-06T03:33:42;10.50;;;6.63;;
68947;SDS011;55996;49.546;7.400;2024-01-06T03:36:09;8.10;;;6.47;;
68947;SDS011;55996;49.546;7.400;2024-01-06T03:38:34;9.00;;;6.40;;
68947;SDS011;55996;49.546;7.400;2024-01-06T03:41:00;9.30;;;5.63;;
68947;SDS011;55996;49.546;7.400;2024-01-06T03:43:25;12.53;;;8.17;;
68947;SDS011;55996;49.546;7.400;2024-01-06T03:45:50;10.07;;;6.20;;
68947;SDS011;55996;49.546;7.400;2024-01-06T03:48:16;10.40;;;6.90;;
68947;SDS011;55996;49.546;7.400;2024-01-06T03:50:41;8.23;;;6.73;;
68947;SDS011;55996;49.546;7.400;2024-01-06T03:53:06;9.40;;;7.17;;
68947;SDS011;55996;49.546;7.400;2024-01-06T03:55:32;9.13;;;6.50;;
68947;SDS011;55996;49.546;7.400;2024-01-06T03:57:58;8.43;;;6.40;;
68947;SDS011;55996;49.546;7.400;2024-01-06T04:00:24;10.03;;;6.77;;
68947;SDS011;55996;49.546;7.400;2024-01-06T04:02:50;12.37;;;7.17;;
68947;SDS011;55996;49.546;7.400;2024-01-06T04:05:16;10.00;;;7.77;;
68947;SDS011;55996;49.546;7.400;2024-01-06T04:07:41;9.40;;;6.80;;
68947;SDS011;55996;49.546;7.400;2024-01-06T04:10:06;8.27;;;6.83;;
68947;SDS011;55996;49.546;7.400;2024-01-06T04:12:32;10.17;;;7.37;;
68947;SDS011;55996;49.546;7.400;2024-01-06T04:14:57;10.40;;;6.83;;
68947;SDS011;55996;49.546;7.400;2024-01-06T04:17:23;11.70;;;6.53;;
68947;SDS011;55996;49.546;7.400;2024-01-06T04:19:48;9.67;;;6.70;;
68947;SDS011;55996;49.546;7.400;2024-01-06T04:22:13;8.53;;;6.60;;
68947;SDS011;55996;49.546;7.400;2024-01-06T04:24:39;10.13;;;6.93;;
68947;SDS011;55996;49.546;7.400;2024-01-06T04:27:05;10.27;;;6.90;;
68947;SDS011;55996;49.546;7.400;2024-01-06T04:29:31;8.47;;;6.97;;
68947;SDS011;55996;49.546;7.400;2024-01-06T04:31:56;7.53;;;6.83;;
68947;SDS011;55996;49.546;7.400;2024-01-06T04:34:22;10.77;;;6.30;;
68947;SDS011;55996;49.546;7.400;2024-01-06T04:36:47;8.70;;;6.37;;
68947;SDS011;55996;49.546;7.400;2024-01-06T04:39:13;7.97;;;7.17;;
68947;SDS011;55996;49.546;7.400;2024-01-06T04:41:39;10.07;;;6.87;;
68947;SDS011;55996;49.546;7.400;2024-01-06T04:44:05;9.07;;;6.47;;
68947;SDS011;55996;49.546;7.400;2024-01-06T04:46:30;8.93;;;6.63;;
68947;SDS011;55996;49.546;7.400;2024-01-06T04:48:56;7.73;;;6.83;;
68947;SDS011;55996;49.546;7.400;2024-01-06T04:51:21;10.17;;;6.07;;
68947;SDS011;55996;49.546;7.400;2024-01-06T04:53:47;8.47;;;6.97;;
68947;SDS011;55996;49.546;7.400;2024-01-06T04:56:12;8.20;;;5.97;;
68947;SDS011;55996;49.546;7.400;2024-01-06T04:58:38;7.50;;;6.53;;
68947;SDS011;55996;49.546;7.400;2024-01-06T05:01:03;12.77;;;7.67;;
68947;SDS011;55996;49.546;7.400;2024-01-06T05:03:29;9.40;;;7.27;;
68947;SDS011;55996;49.546;7.400;2024-01-06T05:05:55;7.40;;;6.73;;
68947;SDS011;55996;49.546;7.400;2024-01-06T05:08:20;10.97;;;7.20;;
68947;SDS011;55996;49.546;7.400;2024-01-06T05:10:47;11.07;;;6.83;;
68947;SDS011;55996;49.546;7.400;2024-01-06T05:13:13;9.90;;;7.70;;
68947;SDS011;55996;49.546;7.400;2024-01-06T05:15:38;11.17;;;7.80;;
68947;SDS011;55996;49.546;7.400;2024-01-06T05:18:04;10.13;;;7.80;;
68947;SDS011;55996;49.546;7.400;2024-01-06T05:20:29;13.17;;;7.60;;
68947;SDS011;55996;49.546;7.400;2024-01-06T05:22:55;11.03;;;7.67;;
68947;SDS011;55996;49.546;7.400;2024-01-06T05:25:20;9.43;;;7.17;;
68947;SDS011;55996;49.546;7.400;2024-01-06T05:27:45;11.07;;;7.50;;
68947;SDS011;55996;49.546;7.400;2024-01-06T05:30:11;12.73;;;8.00;;
68947;SDS011;55996;49.546;7.400;2024-01-06T05:32:37;9.30;;;6.70;;
68947;SDS011;55996;49.546;7.400;2024-01-06T05:35:03;9.50;;;7.27;;
68947;SDS011;55996;49.546;7.400;2024-01-06T05:37:29;10.03;;;7.50;;
68947;SDS011;55996;49.546;7.400;2024-01-06T05:39:54;11.20;;;7.77;;
68947;SDS011;55996;49.546;7.400;2024-01-06T05:42:19;8.77;;;7.50;;
68947;SDS011;55996;49.546;7.400;2024-01-06T05:44:45;11.37;;;7.17;;
68947;SDS011;55996;49.546;7.400;2024-01-06T05:47:10;9.23;;;7.50;;
68947;SDS011;55996;49.546;7.400;2024-01-06T05:49:35;10.23;;;7.03;;
68947;SDS011;55996;49.546;7.400;2024-01-06T05:52:01;8.20;;;6.40;;
68947;SDS011;55996;49.546;7.400;2024-01-06T05:54:26;8.37;;;7.00;;
68947;SDS011;55996;49.546;7.400;2024-01-06T05:56:51;8.27;;;6.77;;
68947;SDS011;55996;49.546;7.400;2024-01-06T05:59:17;7.27;;;6.40;;
68947;SDS011;55996;49.546;7.400;2024-01-06T06:01:42;9.27;;;7.27;;
68947;SDS011;55996;49.546;7.400;2024-01-06T06:04:08;9.03;;;7.00;;
68947;SDS011;55996;49.546;7.400;2024-01-06T06:06:35;8.17;;;6.67;;
68947;SDS011;55996;49.546;7.400;2024-01-06T06:09:00;7.90;;;6.77;;
68947;SDS011;55996;49.546;7.400;2024-01-06T06:11:25;8.30;;;7.37;;
68947;SDS011;55996;49.546;7.400;2024-01-06T06:13:51;8.57;;;7.27;;
68947;SDS011;55996;49.546;7.400;2024-01-06T06:16:16;8.30;;;7.37;;
68947;SDS011;55996;49.546;7.400;2024-01-06T06:18:41;9.97;;;7.40;;
68947;SDS011;55996;49.546;7.400;2024-01-06T06:21:07;9.83;;;7.23;;
68947;SDS011;55996;49.546;7.400;2024-01-06T06:23:33;10.00;;;7.63;;
68947;SDS011;55996;49.546;7.400;2024-01-06T06:25:59;9.57;;;7.00;;
68947;SDS011;55996;49.546;7.400;2024-01-06T06:28:24;9.90;;;7.67;;
68947;SDS011;55996;49.546;7.400;2024-01-06T06:30:50;12.77;;;8.70;;
68947;SDS011;55996;49.546;7.400;2024-01-06T06:33:15;8.43;;;7.63;;
68947;SDS011;55996;49.546;7.400;2024-01-06T06:35:42;10.73;;;7.40;;
68947;SDS011;55996;49.546;7.400;2024-01-06T06:38:07;11.53;;;8.73;;
68947;SDS011;55996;49.546;7.400;2024-01-06T06:40:33;13.13;;;8.20;;
68947;SDS011;55996;49.546;7.400;2024-01-06T06:42:58;9.37;;;7.33;;
68947;SDS011;55996;49.546;7.400;2024-01-06T06:45:23;10.97;;;8.00;;
68947;SDS011;55996;49.546;7.400;2024-01-06T06:47:49;11.97;;;8.47;;
68947;SDS011;55996;49.546;7.400;2024-01-06T06:50:17;9.40;;;7.50;;
68947;SDS011;55996;49.546;7.400;2024-01-06T06:52:44;8.47;;;7.33;;
68947;SDS011;55996;49.546;7.400;2024-01-06T06:55:09;10.30;;;7.83;;
68947;SDS011;55996;49.546;7.400;2024-01-06T06:57:35;9.50;;;8.20;;
68947;SDS011;55996;49.546;7.400;2024-01-06T07:00:00;13.30;;;8.53;;
68947;SDS011;55996;49.546;7.400;2024-01-06T07:02:26;10.47;;;8.33;;
68947;SDS011;55996;49.546;7.400;2024-01-06T07:04:51;11.57;;;9.00;;
68947;SDS011;55996;49.546;7.400;2024-01-06T07:07:16;12.53;;;8.67;;
68947;SDS011;55996;49.546;7.400;2024-01-06T07:09:42;12.00;;;8.53;;
68947;SDS011;55996;49.546;7.400;2024-01-06T07:12:07;12.17;;;10.03;;
68947;SDS011;55996;49.546;7.400;2024-01-06T07:14:33;14.70;;;9.03;;
68947;SDS011;55996;49.546;7.400;2024-01-06T07:16:58;11.43;;;8.87;;
68947;SDS011;55996;49.546;7.400;2024-01-06T07:19:24;14.70;;;8.93;;
68947;SDS011;55996;49.546;7.400;2024-01-06T07:21:49;12.30;;;8.77;;
68947;SDS011;55996;49.546;7.400;2024-01-06T07:24:15;10.73;;;9.10;;
68947;SDS011;55996;49.546;7.400;2024-01-06T07:26:40;12.90;;;9.33;;
68947;SDS011;55996;49.546;7.400;2024-01-06T07:29:06;12.20;;;8.40;;
68947;SDS011;55996;49.546;7.400;2024-01-06T07:31:33;9.30;;;8.07;;
68947;SDS011;55996;49.546;7.400;2024-01-06T07:33:59;14.67;;;9.17;;
68947;SDS011;55996;49.546;7.400;2024-01-06T07:36:24;13.93;;;9.53;;
68947;SDS011;55996;49.546;7.400;2024-01-06T07:38:50;11.80;;;9.70;;
68947;SDS011;55996;49.546;7.400;2024-01-06T07:41:16;14.73;;;9.63;;
68947;SDS011;55996;49.546;7.400;2024-01-06T07:43:42;10.87;;;8.67;;
68947;SDS011;55996;49.546;7.400;2024-01-06T07:46:07;12.17;;;9.27;;
68947;SDS011;55996;49.546;7.400;2024-01-06T07:48:34;15.33;;;9.43;;
68947;SDS011;55996;49.546;7.400;2024-01-06T07:51:00;14.00;;;9.73;;
68947;SDS011;55996;49.546;7.400;2024-01-06T07:53:26;12.53;;;9.20;;
68947;SDS011;55996;49.546;7.400;2024-01-06T07:55:52;13.47;;;9.23;;
68947;SDS011;55996;49.546;7.400;2024-01-06T07:58:17;10.97;;;8.90;;
68947;SDS011;55996;49.546;7.400;2024-01-06T08:00:42;9.73;;;8.70;;
68947;SDS011;55996;49.546;7.400;2024-01-06T08:03:08;9.60;;;8.23;;
68947;SDS011;55996;49.546;7.400;2024-01-06T08:05:33;11.80;;;8.73;;
68947;SDS011;55996;49.546;7.400;2024-01-06T08:07:59;8.80;;;7.90;;
68947;SDS011;55996;49.546;7.400;2024-01-06T08:10:24;10.20;;;8.20;;
68947;SDS011;55996;49.546;7.400;2024-01-06T08:12:49;9.73;;;8.00;;
68947;SDS011;55996;49.546;7.400;2024-01-06T08:15:15;9.10;;;7.60;;
68947;SDS011;55996;49.546;7.400;2024-01-06T08:17:40;8.43;;;7.30;;
68947;SDS011;55996;49.546;7.400;2024-01-06T08:20:06;9.40;;;7.47;;
68947;SDS011;55996;49.546;7.400;2024-01-06T08:22:33;8.53;;;7.63;;
68947;SDS011;55996;49.546;7.400;2024-01-06T08:24:59;9.27;;;7.90;;
68947;SDS011;55996;49.546;7.400;2024-01-06T08:27:24;7.70;;;6.97;;
68947;SDS011;55996;49.546;7.400;2024-01-06T08:29:50;7.07;;;6.37;;
68947;SDS011;55996;49.546;7.400;2024-01-06T08:32:15;8.97;;;7.10;;
68947;SDS011;55996;49.546;7.400;2024-01-06T08:34:41;9.93;;;7.47;;
68947;SDS011;55996;49.546;7.400;2024-01-06T08:37:07;8.17;;;7.30;;
68947;SDS011;55996;49.546;7.400;2024-01-06T08:39:32;7.83;;;6.67;;
68947;SDS011;55996;49.546;7.400;2024-01-06T08:41:58;9.00;;;7.30;;
68947;SDS011;55996;49.546;7.400;2024-01-06T08:44:23;7.70;;;6.90;;
68947;SDS011;55996;49.546;7.400;2024-01-06T08:46:49;8.17;;;7.27;;
68947;SDS011;55996;49.546;7.400;2024-01-06T08:49:15;7.77;;;6.97;;
68947;SDS011;55996;49.546;7.400;2024-01-06T08:51:40;8.10;;;7.03;;
68947;SDS011;55996;49.546;7.400;2024-01-06T08:54:06;9.10;;;7.17;;
68947;SDS011;55996;49.546;7.400;2024-01-06T08:56:34;8.10;;;7.30;;
68947;SDS011;55996;49.546;7.400;2024-01-06T08:59:00;8.87;;;6.97;;
68947;SDS011;55996;49.546;7.400;2024-01-06T09:01:26;7.60;;;6.90;;
68947;SDS011;55996;49.546;7.400;2024-01-06T09:03:51;8.63;;;7.73;;
68947;SDS011;55996;49.546;7.400;2024-01-06T09:06:16;10.77;;;7.43;;
68947;SDS011;55996;49.546;7.400;2024-01-06T09:08:43;8.23;;;6.77;;
68947;SDS011;55996;49.546;7.400;2024-01-06T09:11:08;7.57;;;6.87;;
68947;SDS011;55996;49.546;7.400;2024-01-06T09:13:33;8.13;;;7.33;;
68947;SDS011;55996;49.546;7.400;2024-01-06T09:15:59;12.47;;;7.80;;
68947;SDS011;55996;49.546;7.400;2024-01-06T09:18:25;8.70;;;7.77;;
68947;SDS011;55996;49.546;7.400;2024-01-06T09:20:52;8.60;;;7.70;;
68947;SDS011;55996;49.546;7.400;2024-01-06T09:23:17;8.97;;;7.70;;
68947;SDS011;55996;49.546;7.400;2024-01-06T09:25:42;8.13;;;7.33;;
68947;SDS011;55996;49.546;7.400;2024-01-06T09:28:08;8.23;;;7.27;;
68947;SDS011;55996;49.546;7.400;2024-01-06T09:30:33;9.60;;;7.23;;
68947;SDS011;55996;49.546;7.400;2024-01-06T09:32:59;10.00;;;7.37;;
68947;SDS011;55996;49.546;7.400;2024-01-06T09:35:24;8.77;;;7.87;;
68947;SDS011;55996;49.546;7.400;2024-01-06T09:37:50;9.10;;;7.33;;
68947;SDS011;55996;49.546;7.400;2024-01-06T09:40:21;8.43;;;7.23;;
68947;SDS011;55996;49.546;7.400;2024-01-06T09:42:51;8.50;;;7.50;;
68947;SDS011;55996;49.546;7.400;2024-01-06T09:45:18;8.20;;;7.07;;
68947;SDS011;55996;49.546;7.400;2024-01-06T09:47:47;9.33;;;7.50;;
68947;SDS011;55996;49.546;7.400;2024-01-06T09:50:14;8.47;;;6.80;;
68947;SDS011;55996;49.546;7.400;2024-01-06T09:52:45;8.13;;;7.23;;
68947;SDS011;55996;49.546;7.400;2024-01-06T09:55:17;8.70;;;7.90;;
68947;SDS011;55996;49.546;7.400;2024-01-06T09:57:45;8.40;;;7.50;;
68947;SDS011;55996;49.546;7.400;2024-01-06T10:00:10;8.40;;;7.60;;
68947;SDS011;55996;49.546;7.400;2024-01-06T10:02:37;11.03;;;7.73;;
68947;SDS011;55996;49.546;7.400;2024-01-06T10:05:03;8.93;;;7.87;;
68947;SDS011;55996;49.546;7.400;2024-01-06T10:07:28;7.80;;;7.00;;
68947;SDS011;55996;49.546;7.400;2024-01-06T10:09:54;7.40;;;6.53;;
68947;SDS011;55996;49.546;7.400;2024-01-06T10:12:23;8.23;;;6.77;;
68947;SDS011;55996;49.546;7.400;2024-01-06T10:14:50;7.23;;;6.50;;
68947;SDS011;55996;49.546;7.400;2024-01-06T10:17:15;9.00;;;6.10;;
68947;SDS011;55996;49.546;7.400;2024-01-06T10:19:41;8.43;;;6.00;;
68947;SDS011;55996;49.546;7.400;2024-01-06T10:22:10;6.83;;;5.63;;
68947;SDS011;55996;49.546;7.400;2024-01-06T10:24:36;6.63;;;5.50;;
68947;SDS011;55996;49.546;7.400;2024-01-06T10:27:02;6.73;;;5.57;;
68947;SDS011;55996;49.546;7.400;2024-01-06T10:29:28;6.10;;;5.50;;
68947;SDS011;55996;49.546;7.400;2024-01-06T10:31:54;5.63;;;5.13;;
68947;SDS011;55996;49.546;7.400;2024-01-06T10:34:20;5.50;;;5.00;;
68947;SDS011;55996;49.546;7.400;2024-01-06T10:36:45;7.43;;;5.30;;
68947;SDS011;55996;49.546;7.400;2024-01-06T10:39:12;5.60;;;5.10;;
68947;SDS011;55996;49.546;7.400;2024-01-06T10:41:40;6.87;;;5.23;;
68947;SDS011;55996;49.546;7.400;2024-01-06T10:44:07;5.97;;;5.37;;
68947;SDS011;55996;49.546;7.400;2024-01-06T10:46:34;5.87;;;5.27;;
68947;SDS011;55996;49.546;7.400;2024-01-06T10:49:01;4.90;;;4.40;;
68947;SDS011;55996;49.546;7.400;2024-01-06T10:51:27;5.20;;;4.70;;
68947;SDS011;55996;49.546;7.400;2024-01-06T10:53:55;4.63;;;4.20;;
68947;SDS011;55996;49.546;7.400;2024-01-06T10:56:22;4.53;;;4.13;;
68947;SDS011;55996;49.546;7.400;2024-01-06T10:58:50;4.10;;;3.80;;
68947;SDS011;55996;49.546;7.400;2024-01-06T11:01:21;4.20;;;3.80;;
68947;SDS011;55996;49.546;7.400;2024-01-06T11:03:49;5.03;;;4.00;;
68947;SDS011;55996;49.546;7.400;2024-01-06T11:06:14;4.53;;;4.00;;
68947;SDS011;55996;49.546;7.400;2024-01-06T11:08:57;4.00;;;3.60;;
68947;SDS011;55996;49.546;7.400;2024-01-06T11:11:29;4.67;;;3.50;;
68947;SDS011;55996;49.546;7.400;2024-01-06T11:14:16;4.30;;;3.80;;
68947;SDS011;55996;49.546;7.400;2024-01-06T11:16:51;3.73;;;3.43;;
68947;SDS011;55996;49.546;7.400;2024-01-06T11:24:56;3.90;;;3.47;;
68947;SDS011;55996;49.546;7.400;2024-01-06T11:27:28;3.50;;;3.20;;
68947;SDS011;55996;49.546;7.400;2024-01-06T11:29:56;4.27;;;3.87;;
68947;SDS011;55996;49.546;7.400;2024-01-06T11:34:53;5.13;;;3.60;;
68947;SDS011;55996;49.546;7.400;2024-01-06T11:38:03;4.43;;;4.10;;
68947;SDS011;55996;49.546;7.400;2024-01-06T11:40:10;3.70;;;3.40;;
68947;SDS011;55996;49.546;7.400;2024-01-06T11:42:42;3.97;;;3.67;;
68947;SDS011;55996;49.546;7.400;2024-01-06T11:45:08;3.30;;;3.00;;
68947;SDS011;55996;49.546;7.400;2024-01-06T11:47:34;3.70;;;3.33;;
68947;SDS011;55996;49.546;7.400;2024-01-06T11:50:00;4.03;;;3.63;;
68947;SDS011;55996;49.546;7.400;2024-01-06T11:52:31;4.40;;;4.00;;
68947;SDS011;55996;49.546;7.400;2024-01-06T11:54:57;4.77;;;4.00;;
68947;SDS011;55996;49.546;7.400;2024-01-06T11:57:24;3.87;;;3.57;;
68947;SDS011;55996;49.546;7.400;2024-01-06T11:59:53;4.07;;;3.20;;
68947;SDS011;55996;49.546;7.400;2024-01-06T12:02:19;3.50;;;3.20;;
68947;SDS011;55996;49.546;7.400;2024-01-06T12:04:47;3.43;;;3.13;;
68947;SDS011;55996;49.546;7.400;2024-01-06T12:07:15;3.77;;;3.47;;
68947;SDS011;55996;49.546;7.400;2024-01-06T12:09:40;3.40;;;3.20;;
68947;SDS011;55996;49.546;7.400;2024-01-06T12:12:06;3.10;;;2.90;;
68947;SDS011;55996;49.546;7.400;2024-01-06T12:14:32;3.10;;;2.90;;
68947;SDS011;55996;49.546;7.400;2024-01-06T12:17:00;3.47;;;3.17;;
68947;SDS011;55996;49.546;7.400;2024-01-06T12:19:32;4.77;;;3.97;;
68947;SDS011;55996;49.546;7.400;2024-01-06T12:21:58;3.17;;;2.80;;
68947;SDS011;55996;49.546;7.400;2024-01-06T12:24:26;4.10;;;2.70;;
68947;SDS011;55996;49.546;7.400;2024-01-06T12:26:54;2.43;;;2.23;;
68947;SDS011;55996;49.546;7.400;2024-01-06T12:29:22;4.73;;;2.30;;
68947;SDS011;55996;49.546;7.400;2024-01-06T12:31:47;2.40;;;2.20;;
68947;SDS011;55996;49.546;7.400;2024-01-06T12:34:12;2.60;;;2.40;;
68947;SDS011;55996;49.546;7.400;2024-01-06T12:36:38;2.40;;;2.20;;
68947;SDS011;55996;49.546;7.400;2024-01-06T12:39:06;2.20;;;2.00;;
68947;SDS011;55996;49.546;7.400;2024-01-06T12:41:36;2.40;;;2.20;;
68947;SDS011;55996;49.546;7.400;2024-01-06T12:44:03;2.60;;;2.40;;
68947;SDS011;55996;49.546;7.400;2024-01-06T12:46:28;2.60;;;2.40;;
68947;SDS011;55996;49.546;7.400;2024-01-06T12:48:54;2.57;;;2.37;;
68947;SDS011;55996;49.546;7.400;2024-01-06T12:51:19;4.40;;;4.00;;
68947;SDS011;55996;49.546;7.400;2024-01-06T12:53:45;2.60;;;2.40;;
68947;SDS011;55996;49.546;7.400;2024-01-06T12:56:10;2.83;;;2.63;;
68947;SDS011;55996;49.546;7.400;2024-01-06T12:58:35;2.57;;;2.40;;
68947;SDS011;55996;49.546;7.400;2024-01-06T13:01:01;2.93;;;2.20;;
68947;SDS011;55996;49.546;7.400;2024-01-06T13:03:27;2.73;;;2.53;;
68947;SDS011;55996;49.546;7.400;2024-01-06T13:05:53;4.77;;;2.27;;
68947;SDS011;55996;49.546;7.400;2024-01-06T13:08:19;2.13;;;1.93;;
68947;SDS011;55996;49.546;7.400;2024-01-06T13:10:44;2.10;;;2.00;;
68947;SDS011;55996;49.546;7.400;2024-01-06T13:13:10;2.03;;;1.80;;
68947;SDS011;55996;49.546;7.400;2024-01-06T13:15:35;1.90;;;1.80;;
68947;SDS011;55996;49.546;7.400;2024-01-06T13:18:00;3.00;;;2.80;;
68947;SDS011;55996;49.546;7.400;2024-01-06T13:20:26;1.90;;;1.80;;
68947;SDS011;55996;49.546;7.400;2024-01-06T13:22:52;2.03;;;1.80;;
68947;SDS011;55996;49.546;7.400;2024-01-06T13:25:17;1.90;;;1.80;;
68947;SDS011;55996;49.546;7.400;2024-01-06T13:27:44;1.90;;;1.80;;
68947;SDS011;55996;49.546;7.400;2024-01-06T13:30:10;2.40;;;2.20;;
68947;SDS011;55996;49.546;7.400;2024-01-06T13:32:37;1.80;;;1.70;;
68947;SDS011;55996;49.546;7.400;2024-01-06T13:35:03;2.00;;;1.90;;
68947;SDS011;55996;49.546;7.400;2024-01-06T13:37:31;2.10;;;1.97;;
68947;SDS011;55996;49.546;7.400;2024-01-06T13:39:57;1.70;;;1.60;;
68947;SDS011;55996;49.546;7.400;2024-01-06T13:42:22;1.90;;;1.80;;
68947;SDS011;55996;49.546;7.400;2024-01-06T13:44:48;3.93;;;2.20;;
68947;SDS011;55996;49.546;7.400;2024-01-06T13:47:13;5.80;;;2.17;;
68947;SDS011;55996;49.546;7.400;2024-01-06T13:49:39;2.90;;;2.60;;
68947;SDS011;55996;49.546;7.400;2024-01-06T13:52:05;3.30;;;2.80;;
68947;SDS011;55996;49.546;7.400;2024-01-06T13:54:32;2.40;;;2.20;;
68947;SDS011;55996;49.546;7.400;2024-01-06T13:57:01;2.53;;;2.20;;
68947;SDS011;55996;49.546;7.400;2024-01-06T13:59:26;2.20;;;2.00;;
68947;SDS011;55996;49.546;7.400;2024-01-06T14:01:52;1.73;;;1.63;;
68947;SDS011;55996;49.546;7.400;2024-01-06T14:04:18;2.47;;;1.90;;
68947;SDS011;55996;49.546;7.400;2024-01-06T14:06:44;2.40;;;2.17;;
68947;SDS011;55996;49.546;7.400;2024-01-06T14:09:09;2.60;;;2.40;;
68947;SDS011;55996;49.546;7.400;2024-01-06T14:11:34;2.50;;;2.30;;
68947;SDS011;55996;49.546;7.400;2024-01-06T14:14:01;2.03;;;1.80;;
68947;SDS011;55996;49.546;7.400;2024-01-06T14:16:26;3.10;;;1.70;;
68947;SDS011;55996;49.546;7.400;2024-01-06T14:18:52;1.83;;;1.73;;
68947;SDS011;55996;49.546;7.400;2024-01-06T14:21:18;1.70;;;1.60;;
68947;SDS011;55996;49.546;7.400;2024-01-06T14:23:47;1.80;;;1.70;;
68947;SDS011;55996;49.546;7.400;2024-01-06T14:26:14;1.77;;;1.67;;
68947;SDS011;55996;49.546;7.400;2024-01-06T14:28:45;1.70;;;1.60;;
68947;SDS011;55996;49.546;7.400;2024-01-06T14:31:10;1.70;;;1.60;;
68947;SDS011;55996;49.546;7.400;2024-01-06T14:33:36;1.63;;;1.53;;
68947;SDS011;55996;49.546;7.400;2024-01-06T14:36:01;2.17;;;1.83;;
68947;SDS011;55996;49.546;7.400;2024-01-06T14:38:28;1.67;;;1.57;;
68947;SDS011;55996;49.546;7.400;2024-01-06T14:40:53;1.70;;;1.60;;
68947;SDS011;55996;49.546;7.400;2024-01-06T14:43:19;2.30;;;2.10;;
68947;SDS011;55996;49.546;7.400;2024-01-06T14:45:45;1.70;;;1.60;;
68947;SDS011;55996;49.546;7.400;2024-01-06T14:48:11;1.90;;;1.70;;